sensor_id;sensor_type;location;lat;lon;timestamp;P1;durP1;ratioP1;P2;durP2;ratioP2
4307;SDS011;2167;53.448;9.984;2023-01-29T00:01:55;16.80;;;8.73;;
4307;SDS011;2167;53.448;9.984;2023-01-29T00:04:21;16.50;;;8.37;;
4307;SDS011;2167;53.448;9.984;2023-01-29T00:06:47;17.13;;;8.33;;
4307;SDS011;2167;53.448;9.984;2023-01-29T00:09:12;17.40;;;8.13;;
4307;SDS011;2167;53.448;9.984;2023-01-29T00:11:39;16.23;;;8.80;;
4307;SDS011;2167;53.448;9.984;2023-01-29T00:14:05;25.97;;;8.63;;
4307;SDS011;2167;53.448;9.984;2023-01-29T00:16:31;10.00;;;7.60;;
4307;SDS011;2167;53.448;9.984;2023-01-29T00:18:56;15.13;;;9.10;;
4307;SDS011;2167;53.448;9.984;2023-01-29T00:21:22;15.03;;;7.37;;
4307;SDS011;2167;53.448;9.984;2023-01-29T00:23:48;21.58;;;11.50;;
4307;SDS011;2167;53.448;9.984;2023-01-29T00:26:15;21.50;;;8.83;;
4307;SDS011;2167;53.448;9.984;2023-01-29T00:28:41;17.17;;;8.70;;
4307;SDS011;2167;53.448;9.984;2023-01-29T00:31:08;15.73;;;9.03;;
4307;SDS011;2167;53.448;9.984;2023-01-29T00:33:34;11.53;;;6.73;;
4307;SDS011;2167;53.448;9.984;2023-01-29T00:36:03;12.57;;;6.33;;
4307;SDS011;2167;53.448;9.984;2023-01-29T00:38:30;13.17;;;7.20;;
4307;SDS011;2167;53.448;9.984;2023-01-29T00:40:57;17.70;;;8.67;;
4307;SDS011;2167;53.448;9.984;2023-01-29T00:43:48;14.10;;;6.37;;
4307;SDS011;2167;53.448;9.984;2023-01-29T00:46:32;15.23;;;8.03;;
4307;SDS011;2167;53.448;9.984;2023-01-29T00:48:58;13.03;;;6.20;;
4307;SDS011;2167;53.448;9.984;2023-01-29T00:51:23;18.00;;;7.00;;
4307;SDS011;2167;53.448;9.984;2023-01-29T00:53:49;18.93;;;8.20;;
4307;SDS011;2167;53.448;9.984;2023-01-29T00:56:15;15.27;;;8.20;;
4307;SDS011;2167;53.448;9.984;2023-01-29T00:58:40;22.25;;;11.32;;
4307;SDS011;2167;53.448;9.984;2023-01-29T01:01:06;17.60;;;9.00;;
4307;SDS011;2167;53.448;9.984;2023-01-29T01:03:31;15.80;;;7.20;;
4307;SDS011;2167;53.448;9.984;2023-01-29T01:06:03;12.77;;;8.43;;
4307;SDS011;2167;53.448;9.984;2023-01-29T01:08:30;14.70;;;8.93;;
4307;SDS011;2167;53.448;9.984;2023-01-29T01:11:15;14.90;;;8.40;;
4307;SDS011;2167;53.448;9.984;2023-01-29T01:13:41;15.23;;;7.53;;
4307;SDS011;2167;53.448;9.984;2023-01-29T01:16:15;16.70;;;9.55;;
4307;SDS011;2167;53.448;9.984;2023-01-29T01:18:42;22.83;;;10.75;;
4307;SDS011;2167;53.448;9.984;2023-01-29T01:21:08;18.50;;;8.93;;
4307;SDS011;2167;53.448;9.984;2023-01-29T01:23:33;13.57;;;6.47;;
4307;SDS011;2167;53.448;9.984;2023-01-29T01:25:59;10.13;;;6.43;;
4307;SDS011;2167;53.448;9.984;2023-01-29T01:28:25;17.07;;;6.70;;
4307;SDS011;2167;53.448;9.984;2023-01-29T01:30:51;16.00;;;8.70;;
4307;SDS011;2167;53.448;9.984;2023-01-29T01:33:17;15.10;;;8.70;;
4307;SDS011;2167;53.448;9.984;2023-01-29T01:35:43;15.20;;;8.60;;
4307;SDS011;2167;53.448;9.984;2023-01-29T01:38:08;12.57;;;6.17;;
4307;SDS011;2167;53.448;9.984;2023-01-29T01:40:34;11.87;;;7.30;;
4307;SDS011;2167;53.448;9.984;2023-01-29T01:43:00;19.47;;;8.10;;
4307;SDS011;2167;53.448;9.984;2023-01-29T01:45:29;11.80;;;7.77;;
4307;SDS011;2167;53.448;9.984;2023-01-29T01:50:44;15.95;;;7.47;;
4307;SDS011;2167;53.448;9.984;2023-01-29T01:53:21;12.03;;;6.73;;
4307;SDS011;2167;53.448;9.984;2023-01-29T01:55:54;15.40;;;8.10;;
4307;SDS011;2167;53.448;9.984;2023-01-29T01:58:31;16.23;;;7.10;;
4307;SDS011;2167;53.448;9.984;2023-01-29T02:01:01;9.10;;;4.67;;
4307;SDS011;2167;53.448;9.984;2023-01-29T02:03:30;14.87;;;6.53;;
4307;SDS011;2167;53.448;9.984;2023-01-29T02:06:30;11.97;;;7.20;;
4307;SDS011;2167;53.448;9.984;2023-01-29T02:09:17;19.83;;;9.55;;
4307;SDS011;2167;53.448;9.984;2023-01-29T02:12:20;13.60;;;7.20;;
4307;SDS011;2167;53.448;9.984;2023-01-29T02:14:46;20.33;;;7.30;;
4307;SDS011;2167;53.448;9.984;2023-01-29T02:17:13;11.00;;;7.00;;
4307;SDS011;2167;53.448;9.984;2023-01-29T02:19:50;12.30;;;5.97;;
4307;SDS011;2167;53.448;9.984;2023-01-29T02:28:12;16.07;;;7.20;;
4307;SDS011;2167;53.448;9.984;2023-01-29T02:33:41;14.60;;;5.97;;
4307;SDS011;2167;53.448;9.984;2023-01-29T02:36:13;15.63;;;8.57;;
4307;SDS011;2167;53.448;9.984;2023-01-29T02:41:36;14.23;;;7.93;;
4307;SDS011;2167;53.448;9.984;2023-01-29T02:44:27;16.50;;;6.50;;
4307;SDS011;2167;53.448;9.984;2023-01-29T02:47:09;8.50;;;4.63;;
4307;SDS011;2167;53.448;9.984;2023-01-29T02:49:51;16.83;;;8.33;;
4307;SDS011;2167;53.448;9.984;2023-01-29T02:52:31;9.87;;;6.97;;
4307;SDS011;2167;53.448;9.984;2023-01-29T02:58:04;11.30;;;6.70;;
4307;SDS011;2167;53.448;9.984;2023-01-29T03:00:43;9.90;;;5.27;;
4307;SDS011;2167;53.448;9.984;2023-01-29T03:03:16;15.60;;;6.53;;
4307;SDS011;2167;53.448;9.984;2023-01-29T03:05:55;10.40;;;5.67;;
4307;SDS011;2167;53.448;9.984;2023-01-29T03:08:36;8.57;;;6.40;;
4307;SDS011;2167;53.448;9.984;2023-01-29T03:11:10;9.77;;;5.70;;
4307;SDS011;2167;53.448;9.984;2023-01-29T03:16:14;10.53;;;4.97;;
4307;SDS011;2167;53.448;9.984;2023-01-29T03:18:54;14.50;;;4.90;;
4307;SDS011;2167;53.448;9.984;2023-01-29T03:21:35;6.47;;;4.70;;
4307;SDS011;2167;53.448;9.984;2023-01-29T03:27:17;7.67;;;5.67;;
4307;SDS011;2167;53.448;9.984;2023-01-29T03:30:05;14.17;;;7.30;;
4307;SDS011;2167;53.448;9.984;2023-01-29T03:32:53;7.93;;;5.10;;
4307;SDS011;2167;53.448;9.984;2023-01-29T03:35:23;7.47;;;4.90;;
4307;SDS011;2167;53.448;9.984;2023-01-29T03:38:04;14.17;;;6.00;;
4307;SDS011;2167;53.448;9.984;2023-01-29T03:41:18;8.70;;;5.23;;
4307;SDS011;2167;53.448;9.984;2023-01-29T03:46:05;11.90;;;6.70;;
4307;SDS011;2167;53.448;9.984;2023-01-29T03:49:01;10.43;;;6.63;;
4307;SDS011;2167;53.448;9.984;2023-01-29T03:54:55;7.27;;;4.33;;
4307;SDS011;2167;53.448;9.984;2023-01-29T03:57:35;6.50;;;3.90;;
4307;SDS011;2167;53.448;9.984;2023-01-29T04:00:11;11.43;;;4.93;;
4307;SDS011;2167;53.448;9.984;2023-01-29T04:03:05;7.60;;;4.03;;
4307;SDS011;2167;53.448;9.984;2023-01-29T04:05:42;7.57;;;3.57;;
4307;SDS011;2167;53.448;9.984;2023-01-29T04:08:22;12.30;;;5.30;;
4307;SDS011;2167;53.448;9.984;2023-01-29T04:10:51;9.97;;;6.07;;
4307;SDS011;2167;53.448;9.984;2023-01-29T04:13:20;12.80;;;6.20;;
4307;SDS011;2167;53.448;9.984;2023-01-29T04:15:49;10.33;;;5.73;;
4307;SDS011;2167;53.448;9.984;2023-01-29T04:18:22;10.20;;;5.33;;
4307;SDS011;2167;53.448;9.984;2023-01-29T04:20:49;9.80;;;6.00;;
4307;SDS011;2167;53.448;9.984;2023-01-29T04:23:19;11.87;;;5.97;;
4307;SDS011;2167;53.448;9.984;2023-01-29T04:25:52;9.97;;;4.80;;
4307;SDS011;2167;53.448;9.984;2023-01-29T04:28:49;10.17;;;5.80;;
4307;SDS011;2167;53.448;9.984;2023-01-29T04:31:22;10.63;;;5.18;;
4307;SDS011;2167;53.448;9.984;2023-01-29T04:34:02;12.67;;;7.10;;
4307;SDS011;2167;53.448;9.984;2023-01-29T04:36:43;8.80;;;6.40;;
4307;SDS011;2167;53.448;9.984;2023-01-29T04:39:21;12.47;;;5.30;;
4307;SDS011;2167;53.448;9.984;2023-01-29T04:42:04;10.77;;;5.10;;
4307;SDS011;2167;53.448;9.984;2023-01-29T04:44:43;14.77;;;6.03;;
4307;SDS011;2167;53.448;9.984;2023-01-29T04:47:34;13.63;;;6.33;;
4307;SDS011;2167;53.448;9.984;2023-01-29T04:50:30;14.00;;;7.30;;
4307;SDS011;2167;53.448;9.984;2023-01-29T04:53:15;11.43;;;6.47;;
4307;SDS011;2167;53.448;9.984;2023-01-29T04:55:51;13.03;;;5.83;;
4307;SDS011;2167;53.448;9.984;2023-01-29T04:58:32;9.33;;;6.30;;
4307;SDS011;2167;53.448;9.984;2023-01-29T05:01:01;10.77;;;4.93;;
4307;SDS011;2167;53.448;9.984;2023-01-29T05:03:31;13.83;;;5.70;;
4307;SDS011;2167;53.448;9.984;2023-01-29T05:05:58;15.87;;;7.30;;
4307;SDS011;2167;53.448;9.984;2023-01-29T05:08:25;8.87;;;5.50;;
4307;SDS011;2167;53.448;9.984;2023-01-29T05:10:54;17.03;;;7.97;;
4307;SDS011;2167;53.448;9.984;2023-01-29T05:13:22;14.53;;;8.00;;
4307;SDS011;2167;53.448;9.984;2023-01-29T05:15:59;19.47;;;9.83;;
4307;SDS011;2167;53.448;9.984;2023-01-29T05:18:31;8.63;;;6.30;;
4307;SDS011;2167;53.448;9.984;2023-01-29T05:20:57;12.07;;;6.97;;
4307;SDS011;2167;53.448;9.984;2023-01-29T05:23:26;12.47;;;7.77;;
4307;SDS011;2167;53.448;9.984;2023-01-29T05:25:51;17.20;;;7.30;;
4307;SDS011;2167;53.448;9.984;2023-01-29T05:28:17;15.60;;;7.30;;
4307;SDS011;2167;53.448;9.984;2023-01-29T05:30:44;14.30;;;6.73;;
4307;SDS011;2167;53.448;9.984;2023-01-29T05:33:12;16.63;;;8.33;;
4307;SDS011;2167;53.448;9.984;2023-01-29T05:35:39;11.67;;;7.67;;
4307;SDS011;2167;53.448;9.984;2023-01-29T05:38:05;19.70;;;9.77;;
4307;SDS011;2167;53.448;9.984;2023-01-29T05:40:30;12.73;;;7.13;;
4307;SDS011;2167;53.448;9.984;2023-01-29T05:42:56;11.37;;;7.03;;
4307;SDS011;2167;53.448;9.984;2023-01-29T05:45:21;12.57;;;7.53;;
4307;SDS011;2167;53.448;9.984;2023-01-29T05:47:47;12.83;;;8.60;;
4307;SDS011;2167;53.448;9.984;2023-01-29T05:50:13;11.07;;;6.67;;
4307;SDS011;2167;53.448;9.984;2023-01-29T05:52:39;18.63;;;8.13;;
4307;SDS011;2167;53.448;9.984;2023-01-29T05:55:05;11.77;;;7.70;;
4307;SDS011;2167;53.448;9.984;2023-01-29T05:57:32;12.27;;;7.53;;
4307;SDS011;2167;53.448;9.984;2023-01-29T05:59:57;15.77;;;7.07;;
4307;SDS011;2167;53.448;9.984;2023-01-29T06:02:23;15.00;;;7.00;;
4307;SDS011;2167;53.448;9.984;2023-01-29T06:04:50;14.77;;;8.23;;
4307;SDS011;2167;53.448;9.984;2023-01-29T06:07:16;9.70;;;6.80;;
4307;SDS011;2167;53.448;9.984;2023-01-29T06:09:43;11.13;;;6.50;;
4307;SDS011;2167;53.448;9.984;2023-01-29T06:12:08;18.10;;;6.97;;
4307;SDS011;2167;53.448;9.984;2023-01-29T06:14:34;13.03;;;7.50;;
4307;SDS011;2167;53.448;9.984;2023-01-29T06:16:59;13.10;;;6.50;;
4307;SDS011;2167;53.448;9.984;2023-01-29T06:19:25;14.17;;;8.57;;
4307;SDS011;2167;53.448;9.984;2023-01-29T06:21:50;19.92;;;10.25;;
4307;SDS011;2167;53.448;9.984;2023-01-29T06:24:16;16.17;;;7.47;;
4307;SDS011;2167;53.448;9.984;2023-01-29T06:26:41;17.20;;;7.87;;
4307;SDS011;2167;53.448;9.984;2023-01-29T06:29:07;13.43;;;6.33;;
4307;SDS011;2167;53.448;9.984;2023-01-29T06:31:33;9.73;;;6.50;;
4307;SDS011;2167;53.448;9.984;2023-01-29T06:33:58;16.00;;;7.87;;
4307;SDS011;2167;53.448;9.984;2023-01-29T06:36:24;17.83;;;8.67;;
4307;SDS011;2167;53.448;9.984;2023-01-29T06:38:50;18.90;;;9.43;;
4307;SDS011;2167;53.448;9.984;2023-01-29T06:41:16;14.53;;;7.60;;
4307;SDS011;2167;53.448;9.984;2023-01-29T06:43:43;18.07;;;7.20;;
4307;SDS011;2167;53.448;9.984;2023-01-29T06:46:10;14.70;;;7.23;;
4307;SDS011;2167;53.448;9.984;2023-01-29T06:48:35;11.33;;;5.47;;
4307;SDS011;2167;53.448;9.984;2023-01-29T06:51:10;9.50;;;7.07;;
4307;SDS011;2167;53.448;9.984;2023-01-29T06:53:36;10.73;;;7.33;;
4307;SDS011;2167;53.448;9.984;2023-01-29T06:56:03;11.80;;;6.70;;
4307;SDS011;2167;53.448;9.984;2023-01-29T06:58:30;18.40;;;7.27;;
4307;SDS011;2167;53.448;9.984;2023-01-29T07:01:09;11.33;;;5.77;;
4307;SDS011;2167;53.448;9.984;2023-01-29T07:03:36;18.33;;;7.80;;
4307;SDS011;2167;53.448;9.984;2023-01-29T07:06:02;10.40;;;5.70;;
4307;SDS011;2167;53.448;9.984;2023-01-29T07:08:28;20.97;;;10.80;;
4307;SDS011;2167;53.448;9.984;2023-01-29T07:11:00;21.13;;;8.53;;
4307;SDS011;2167;53.448;9.984;2023-01-29T07:13:26;19.90;;;11.27;;
4307;SDS011;2167;53.448;9.984;2023-01-29T07:15:52;17.83;;;9.93;;
4307;SDS011;2167;53.448;9.984;2023-01-29T07:18:18;14.83;;;7.73;;
4307;SDS011;2167;53.448;9.984;2023-01-29T07:20:43;14.80;;;7.47;;
4307;SDS011;2167;53.448;9.984;2023-01-29T07:23:09;14.37;;;8.43;;
4307;SDS011;2167;53.448;9.984;2023-01-29T07:25:36;16.37;;;9.33;;
4307;SDS011;2167;53.448;9.984;2023-01-29T07:28:02;19.60;;;10.23;;
4307;SDS011;2167;53.448;9.984;2023-01-29T07:30:28;18.03;;;7.57;;
4307;SDS011;2167;53.448;9.984;2023-01-29T07:32:54;22.52;;;12.45;;
4307;SDS011;2167;53.448;9.984;2023-01-29T07:35:20;18.13;;;8.00;;
4307;SDS011;2167;53.448;9.984;2023-01-29T07:37:49;13.27;;;8.53;;
4307;SDS011;2167;53.448;9.984;2023-01-29T07:40:15;15.10;;;7.33;;
4307;SDS011;2167;53.448;9.984;2023-01-29T07:42:41;13.77;;;8.10;;
4307;SDS011;2167;53.448;9.984;2023-01-29T07:45:08;21.70;;;8.90;;
4307;SDS011;2167;53.448;9.984;2023-01-29T07:47:34;12.47;;;7.70;;
4307;SDS011;2167;53.448;9.984;2023-01-29T07:50:00;14.90;;;8.57;;
4307;SDS011;2167;53.448;9.984;2023-01-29T07:52:25;16.00;;;8.00;;
4307;SDS011;2167;53.448;9.984;2023-01-29T07:54:52;17.13;;;8.80;;
4307;SDS011;2167;53.448;9.984;2023-01-29T07:57:18;14.67;;;8.20;;
4307;SDS011;2167;53.448;9.984;2023-01-29T07:59:43;19.67;;;8.80;;
4307;SDS011;2167;53.448;9.984;2023-01-29T08:02:10;13.07;;;7.23;;
4307;SDS011;2167;53.448;9.984;2023-01-29T08:04:36;16.93;;;9.10;;
4307;SDS011;2167;53.448;9.984;2023-01-29T08:07:02;21.90;;;10.53;;
4307;SDS011;2167;53.448;9.984;2023-01-29T08:09:29;18.80;;;11.00;;
4307;SDS011;2167;53.448;9.984;2023-01-29T08:11:55;28.83;;;11.87;;
4307;SDS011;2167;53.448;9.984;2023-01-29T08:14:21;22.50;;;11.63;;
4307;SDS011;2167;53.448;9.984;2023-01-29T08:16:47;28.13;;;11.97;;
4307;SDS011;2167;53.448;9.984;2023-01-29T08:19:13;30.20;;;14.50;;
4307;SDS011;2167;53.448;9.984;2023-01-29T08:21:39;25.83;;;13.33;;
4307;SDS011;2167;53.448;9.984;2023-01-29T08:24:04;23.83;;;11.07;;
4307;SDS011;2167;53.448;9.984;2023-01-29T08:26:31;38.50;;;18.45;;
4307;SDS011;2167;53.448;9.984;2023-01-29T08:28:56;30.47;;;13.13;;
4307;SDS011;2167;53.448;9.984;2023-01-29T08:31:22;34.30;;;16.47;;
4307;SDS011;2167;53.448;9.984;2023-01-29T08:33:48;33.60;;;15.23;;
4307;SDS011;2167;53.448;9.984;2023-01-29T08:36:14;36.27;;;18.70;;
4307;SDS011;2167;53.448;9.984;2023-01-29T08:38:39;34.93;;;13.73;;
4307;SDS011;2167;53.448;9.984;2023-01-29T08:41:05;26.83;;;13.07;;
4307;SDS011;2167;53.448;9.984;2023-01-29T08:43:31;31.80;;;14.83;;
4307;SDS011;2167;53.448;9.984;2023-01-29T08:45:57;24.33;;;12.53;;
4307;SDS011;2167;53.448;9.984;2023-01-29T08:48:22;30.43;;;13.73;;
4307;SDS011;2167;53.448;9.984;2023-01-29T08:50:49;27.43;;;12.57;;
4307;SDS011;2167;53.448;9.984;2023-01-29T08:53:15;29.73;;;13.37;;
4307;SDS011;2167;53.448;9.984;2023-01-29T08:55:40;29.50;;;17.13;;
4307;SDS011;2167;53.448;9.984;2023-01-29T08:58:06;31.63;;;14.67;;
4307;SDS011;2167;53.448;9.984;2023-01-29T09:00:34;27.57;;;16.40;;
4307;SDS011;2167;53.448;9.984;2023-01-29T09:03:00;36.30;;;14.73;;
4307;SDS011;2167;53.448;9.984;2023-01-29T09:05:26;33.73;;;15.13;;
4307;SDS011;2167;53.448;9.984;2023-01-29T09:07:52;43.93;;;16.10;;
4307;SDS011;2167;53.448;9.984;2023-01-29T09:10:18;27.93;;;14.97;;
4307;SDS011;2167;53.448;9.984;2023-01-29T09:12:44;27.87;;;13.50;;
4307;SDS011;2167;53.448;9.984;2023-01-29T09:15:09;25.33;;;14.97;;
4307;SDS011;2167;53.448;9.984;2023-01-29T09:17:35;29.53;;;14.93;;
4307;SDS011;2167;53.448;9.984;2023-01-29T09:20:01;30.17;;;16.43;;
4307;SDS011;2167;53.448;9.984;2023-01-29T09:22:27;35.70;;;16.03;;
4307;SDS011;2167;53.448;9.984;2023-01-29T09:24:52;36.50;;;16.80;;
4307;SDS011;2167;53.448;9.984;2023-01-29T09:27:18;48.03;;;16.77;;
4307;SDS011;2167;53.448;9.984;2023-01-29T09:29:43;34.80;;;17.67;;
4307;SDS011;2167;53.448;9.984;2023-01-29T09:32:09;40.30;;;16.37;;
4307;SDS011;2167;53.448;9.984;2023-01-29T09:34:34;35.50;;;16.23;;
4307;SDS011;2167;53.448;9.984;2023-01-29T09:37:00;35.93;;;19.20;;
4307;SDS011;2167;53.448;9.984;2023-01-29T09:39:25;46.85;;;20.70;;
4307;SDS011;2167;53.448;9.984;2023-01-29T09:42:07;33.63;;;16.63;;
4307;SDS011;2167;53.448;9.984;2023-01-29T09:44:44;40.90;;;18.03;;
4307;SDS011;2167;53.448;9.984;2023-01-29T09:47:34;38.73;;;17.43;;
4307;SDS011;2167;53.448;9.984;2023-01-29T09:50:02;37.87;;;14.60;;
4307;SDS011;2167;53.448;9.984;2023-01-29T09:52:54;37.70;;;18.73;;
4307;SDS011;2167;53.448;9.984;2023-01-29T09:55:45;37.00;;;15.10;;
4307;SDS011;2167;53.448;9.984;2023-01-29T09:58:21;37.23;;;15.83;;
4307;SDS011;2167;53.448;9.984;2023-01-29T10:00:56;32.20;;;14.93;;
4307;SDS011;2167;53.448;9.984;2023-01-29T10:03:30;41.43;;;16.33;;
4307;SDS011;2167;53.448;9.984;2023-01-29T10:11:37;37.37;;;17.47;;
4307;SDS011;2167;53.448;9.984;2023-01-29T10:14:21;31.70;;;15.73;;
4307;SDS011;2167;53.448;9.984;2023-01-29T10:25:18;41.53;;;18.70;;
4307;SDS011;2167;53.448;9.984;2023-01-29T10:27:47;35.00;;;17.10;;
4307;SDS011;2167;53.448;9.984;2023-01-29T10:30:29;26.03;;;13.93;;
4307;SDS011;2167;53.448;9.984;2023-01-29T10:32:58;35.30;;;16.67;;
4307;SDS011;2167;53.448;9.984;2023-01-29T10:35:28;43.63;;;21.87;;
4307;SDS011;2167;53.448;9.984;2023-01-29T10:38:01;47.90;;;21.53;;
4307;SDS011;2167;53.448;9.984;2023-01-29T10:40:48;36.60;;;16.53;;
4307;SDS011;2167;53.448;9.984;2023-01-29T10:53:01;29.93;;;16.07;;
4307;SDS011;2167;53.448;9.984;2023-01-29T10:55:52;42.25;;;21.27;;
4307;SDS011;2167;53.448;9.984;2023-01-29T11:00:57;32.80;;;16.73;;
4307;SDS011;2167;53.448;9.984;2023-01-29T11:03:24;35.83;;;17.37;;
4307;SDS011;2167;53.448;9.984;2023-01-29T11:06:11;27.90;;;14.30;;
4307;SDS011;2167;53.448;9.984;2023-01-29T11:08:41;27.10;;;16.07;;
4307;SDS011;2167;53.448;9.984;2023-01-29T11:11:14;22.20;;;13.00;;
4307;SDS011;2167;53.448;9.984;2023-01-29T11:13:44;34.88;;;18.15;;
4307;SDS011;2167;53.448;9.984;2023-01-29T11:16:17;30.30;;;14.83;;
4307;SDS011;2167;53.448;9.984;2023-01-29T11:21:22;19.77;;;11.53;;
4307;SDS011;2167;53.448;9.984;2023-01-29T11:23:49;31.23;;;12.80;;
4307;SDS011;2167;53.448;9.984;2023-01-29T11:26:29;27.40;;;14.10;;
4307;SDS011;2167;53.448;9.984;2023-01-29T11:28:59;25.10;;;12.80;;
4307;SDS011;2167;53.448;9.984;2023-01-29T11:31:28;24.40;;;11.63;;
4307;SDS011;2167;53.448;9.984;2023-01-29T11:34:20;31.50;;;15.27;;
4307;SDS011;2167;53.448;9.984;2023-01-29T11:36:56;22.77;;;13.13;;
4307;SDS011;2167;53.448;9.984;2023-01-29T11:39:42;17.93;;;11.43;;
4307;SDS011;2167;53.448;9.984;2023-01-29T11:42:16;26.30;;;11.67;;
4307;SDS011;2167;53.448;9.984;2023-01-29T11:44:46;27.97;;;12.90;;
4307;SDS011;2167;53.448;9.984;2023-01-29T11:49:46;23.93;;;12.63;;
4307;SDS011;2167;53.448;9.984;2023-01-29T11:52:36;24.83;;;13.53;;
4307;SDS011;2167;53.448;9.984;2023-01-29T11:55:16;22.37;;;11.00;;
4307;SDS011;2167;53.448;9.984;2023-01-29T11:57:42;23.37;;;12.90;;
4307;SDS011;2167;53.448;9.984;2023-01-29T12:02:52;25.20;;;11.70;;
4307;SDS011;2167;53.448;9.984;2023-01-29T12:05:27;20.87;;;12.40;;
4307;SDS011;2167;53.448;9.984;2023-01-29T12:07:56;20.43;;;13.10;;
4307;SDS011;2167;53.448;9.984;2023-01-29T12:15:36;18.27;;;11.10;;
4307;SDS011;2167;53.448;9.984;2023-01-29T12:20:44;25.30;;;13.00;;
4307;SDS011;2167;53.448;9.984;2023-01-29T12:23:21;28.77;;;14.20;;
4307;SDS011;2167;53.448;9.984;2023-01-29T12:29:16;25.77;;;13.97;;
4307;SDS011;2167;53.448;9.984;2023-01-29T12:31:53;24.10;;;13.40;;
4307;SDS011;2167;53.448;9.984;2023-01-29T12:37:23;29.20;;;12.20;;
4307;SDS011;2167;53.448;9.984;2023-01-29T12:39:57;23.60;;;11.70;;
4307;SDS011;2167;53.448;9.984;2023-01-29T12:42:23;24.53;;;13.57;;
4307;SDS011;2167;53.448;9.984;2023-01-29T12:49:56;23.07;;;11.50;;
4307;SDS011;2167;53.448;9.984;2023-01-29T12:52:35;20.20;;;14.20;;
4307;SDS011;2167;53.448;9.984;2023-01-29T12:55:10;19.60;;;11.00;;
4307;SDS011;2167;53.448;9.984;2023-01-29T12:57:46;24.43;;;12.77;;
4307;SDS011;2167;53.448;9.984;2023-01-29T13:00:34;21.63;;;11.37;;
4307;SDS011;2167;53.448;9.984;2023-01-29T13:06:14;24.27;;;13.00;;
4307;SDS011;2167;53.448;9.984;2023-01-29T13:11:16;18.87;;;11.33;;
4307;SDS011;2167;53.448;9.984;2023-01-29T13:13:51;22.20;;;12.40;;
4307;SDS011;2167;53.448;9.984;2023-01-29T13:16:36;17.60;;;11.40;;
4307;SDS011;2167;53.448;9.984;2023-01-29T13:19:08;22.30;;;14.97;;
4307;SDS011;2167;53.448;9.984;2023-01-29T13:21:38;18.83;;;12.23;;
4307;SDS011;2167;53.448;9.984;2023-01-29T13:24:16;20.33;;;10.03;;
4307;SDS011;2167;53.448;9.984;2023-01-29T13:26:45;25.37;;;11.87;;
4307;SDS011;2167;53.448;9.984;2023-01-29T13:29:19;21.60;;;11.40;;
4307;SDS011;2167;53.448;9.984;2023-01-29T13:31:54;26.77;;;12.87;;
4307;SDS011;2167;53.448;9.984;2023-01-29T13:34:25;19.40;;;10.87;;
4307;SDS011;2167;53.448;9.984;2023-01-29T13:39:48;19.17;;;10.63;;
4307;SDS011;2167;53.448;9.984;2023-01-29T13:45:06;28.30;;;14.13;;
4307;SDS011;2167;53.448;9.984;2023-01-29T13:47:41;15.00;;;11.27;;
4307;SDS011;2167;53.448;9.984;2023-01-29T13:50:08;24.60;;;13.47;;
4307;SDS011;2167;53.448;9.984;2023-01-29T13:52:53;19.03;;;9.57;;
4307;SDS011;2167;53.448;9.984;2023-01-29T13:55:22;21.57;;;11.10;;
4307;SDS011;2167;53.448;9.984;2023-01-29T13:57:55;20.57;;;11.63;;
4307;SDS011;2167;53.448;9.984;2023-01-29T14:10:38;22.17;;;9.97;;
4307;SDS011;2167;53.448;9.984;2023-01-29T14:15:44;24.00;;;11.03;;
4307;SDS011;2167;53.448;9.984;2023-01-29T14:18:33;17.47;;;11.10;;
4307;SDS011;2167;53.448;9.984;2023-01-29T14:21:04;29.87;;;14.70;;
4307;SDS011;2167;53.448;9.984;2023-01-29T14:23:41;24.27;;;12.93;;
4307;SDS011;2167;53.448;9.984;2023-01-29T14:26:28;17.90;;;11.37;;
4307;SDS011;2167;53.448;9.984;2023-01-29T14:31:59;23.47;;;10.73;;
4307;SDS011;2167;53.448;9.984;2023-01-29T14:39:49;25.77;;;12.27;;
4307;SDS011;2167;53.448;9.984;2023-01-29T14:49:55;26.40;;;11.73;;
4307;SDS011;2167;53.448;9.984;2023-01-29T14:52:37;22.23;;;11.07;;
4307;SDS011;2167;53.448;9.984;2023-01-29T14:55:13;18.70;;;9.73;;
4307;SDS011;2167;53.448;9.984;2023-01-29T14:57:49;21.53;;;10.97;;
4307;SDS011;2167;53.448;9.984;2023-01-29T15:00:21;34.22;;;17.30;;
4307;SDS011;2167;53.448;9.984;2023-01-29T15:02:54;21.67;;;13.73;;
4307;SDS011;2167;53.448;9.984;2023-01-29T15:05:24;34.07;;;15.33;;
4307;SDS011;2167;53.448;9.984;2023-01-29T15:10:50;34.07;;;13.07;;
4307;SDS011;2167;53.448;9.984;2023-01-29T15:13:47;27.73;;;12.00;;
4307;SDS011;2167;53.448;9.984;2023-01-29T15:16:29;20.33;;;12.57;;
4307;SDS011;2167;53.448;9.984;2023-01-29T15:19:12;25.67;;;13.63;;
4307;SDS011;2167;53.448;9.984;2023-01-29T15:22:01;25.73;;;13.03;;
4307;SDS011;2167;53.448;9.984;2023-01-29T15:25:04;28.07;;;14.53;;
4307;SDS011;2167;53.448;9.984;2023-01-29T15:27:31;24.40;;;12.73;;
4307;SDS011;2167;53.448;9.984;2023-01-29T15:30:02;15.97;;;10.63;;
4307;SDS011;2167;53.448;9.984;2023-01-29T15:32:32;25.47;;;15.57;;
4307;SDS011;2167;53.448;9.984;2023-01-29T15:35:08;23.40;;;12.17;;
4307;SDS011;2167;53.448;9.984;2023-01-29T15:37:35;25.70;;;13.00;;
4307;SDS011;2167;53.448;9.984;2023-01-29T15:40:02;21.13;;;12.00;;
4307;SDS011;2167;53.448;9.984;2023-01-29T15:42:40;26.63;;;11.43;;
4307;SDS011;2167;53.448;9.984;2023-01-29T15:45:24;23.07;;;13.17;;
4307;SDS011;2167;53.448;9.984;2023-01-29T15:48:00;23.00;;;11.17;;
4307;SDS011;2167;53.448;9.984;2023-01-29T15:50:33;30.40;;;13.53;;
4307;SDS011;2167;53.448;9.984;2023-01-29T15:53:05;24.20;;;12.97;;
4307;SDS011;2167;53.448;9.984;2023-01-29T15:55:32;25.30;;;16.30;;
4307;SDS011;2167;53.448;9.984;2023-01-29T15:57:59;29.23;;;15.47;;
4307;SDS011;2167;53.448;9.984;2023-01-29T16:00:26;35.38;;;18.55;;
4307;SDS011;2167;53.448;9.984;2023-01-29T16:02:53;32.60;;;16.80;;
4307;SDS011;2167;53.448;9.984;2023-01-29T16:05:22;32.47;;;14.20;;
4307;SDS011;2167;53.448;9.984;2023-01-29T16:07:52;25.77;;;13.40;;
4307;SDS011;2167;53.448;9.984;2023-01-29T16:10:20;26.30;;;12.53;;
4307;SDS011;2167;53.448;9.984;2023-01-29T16:12:48;29.77;;;10.57;;
4307;SDS011;2167;53.448;9.984;2023-01-29T16:17:56;28.17;;;15.13;;
4307;SDS011;2167;53.448;9.984;2023-01-29T16:20:29;32.60;;;18.48;;
4307;SDS011;2167;53.448;9.984;2023-01-29T16:23:01;27.75;;;14.95;;
4307;SDS011;2167;53.448;9.984;2023-01-29T16:25:28;25.57;;;12.37;;
4307;SDS011;2167;53.448;9.984;2023-01-29T16:27:55;23.67;;;13.73;;
4307;SDS011;2167;53.448;9.984;2023-01-29T16:30:23;23.53;;;12.90;;
4307;SDS011;2167;53.448;9.984;2023-01-29T16:32:50;19.20;;;11.67;;
4307;SDS011;2167;53.448;9.984;2023-01-29T16:35:16;24.67;;;12.67;;
4307;SDS011;2167;53.448;9.984;2023-01-29T16:37:45;22.47;;;12.70;;
4307;SDS011;2167;53.448;9.984;2023-01-29T16:40:27;30.92;;;17.80;;
4307;SDS011;2167;53.448;9.984;2023-01-29T16:45:55;24.67;;;13.27;;
4307;SDS011;2167;53.448;9.984;2023-01-29T16:48:30;18.13;;;9.93;;
4307;SDS011;2167;53.448;9.984;2023-01-29T16:51:05;27.73;;;13.33;;
4307;SDS011;2167;53.448;9.984;2023-01-29T16:53:37;18.70;;;11.10;;
4307;SDS011;2167;53.448;9.984;2023-01-29T16:56:04;26.07;;;13.60;;
4307;SDS011;2167;53.448;9.984;2023-01-29T16:58:31;20.57;;;12.87;;
4307;SDS011;2167;53.448;9.984;2023-01-29T17:00:58;25.00;;;12.03;;
4307;SDS011;2167;53.448;9.984;2023-01-29T17:03:31;20.27;;;11.20;;
4307;SDS011;2167;53.448;9.984;2023-01-29T17:06:07;24.20;;;13.07;;
4307;SDS011;2167;53.448;9.984;2023-01-29T17:08:37;24.10;;;10.83;;
4307;SDS011;2167;53.448;9.984;2023-01-29T17:11:05;27.90;;;13.97;;
4307;SDS011;2167;53.448;9.984;2023-01-29T17:13:36;25.40;;;11.77;;
4307;SDS011;2167;53.448;9.984;2023-01-29T17:16:13;17.17;;;11.67;;
4307;SDS011;2167;53.448;9.984;2023-01-29T17:18:43;18.40;;;10.43;;
4307;SDS011;2167;53.448;9.984;2023-01-29T17:21:08;25.63;;;12.60;;
4307;SDS011;2167;53.448;9.984;2023-01-29T17:23:34;22.83;;;11.00;;
4307;SDS011;2167;53.448;9.984;2023-01-29T17:25:59;16.83;;;10.53;;
4307;SDS011;2167;53.448;9.984;2023-01-29T17:28:26;19.00;;;10.10;;
4307;SDS011;2167;53.448;9.984;2023-01-29T17:30:52;21.03;;;11.30;;
4307;SDS011;2167;53.448;9.984;2023-01-29T17:33:18;23.00;;;12.43;;